• Join FlightAware (Why Join?)
  • Login
  • US Flag 
03:35PM EDT


 

Airport Tracker/Info


-or-


 

Live Flight TrackerFlight Track Log ✈ SKW5515 ✈ 10-Nov-2013 ✈ KDEN - KMSO

Flight Track Log - Related Links

Times and Time Zones

All times are in EST time to prevent confusion due to time zone crossing. See the SKW5515 flight status page for this flight to view local times or setup timezone preferences in your user account.

Time Position Orientation Groundspeed Altitude Reporting Facility
EST Latitude Longitude Course Direction KTS MPH feet Rate Location/Type
12:08AM 39.8833 -104.5667 346° North 208 239 6,800  Level Denver TRACON
12:09AM 39.9167 -104.5000 57° Northeast 238 274 9,000 1,560 Climbing Denver TRACON
12:10AM 39.9833 -104.5167 349° North 276 318 10,300 1,140 Climbing Denver TRACON
12:11AM 40.1852 -105.0416 348° North  Level Estimated
12:11AM 40.0667 -104.5333 351° North 320 368 11,300  Level Denver TRACON
12:12AM 40.2659 -105.1342 346° North  Level Estimated
12:12AM 40.1500 -104.5833 335° Northwest 340 391 12,900  Level Denver TRACON
12:13AM 40.3711 -105.1065 11° North  Level FlightAware Approximate
12:13AM 40.2500 -104.6167 346° North 358 412 15,000  Level Denver TRACON
12:14AM 40.4511 -105.2004 346° North  Level Estimated
12:14AM 40.3500 -104.6667 339° North 359 413 16,700  Level Denver TRACON
12:16AM 40.4675 -104.7136 343° North 370 426 17,900 1,200 Climbing Denver Center
12:17AM 40.5678 -104.7561 342° North 377 434 19,400 1,320 Climbing Denver Center
12:18AM 40.6650 -104.7983 342° North 367 422 20,700 1,200 Climbing Denver Center
12:19AM 40.7606 -104.8375 343° North 357 411 21,900 960 Climbing Denver Center
12:20AM 40.8592 -104.8828 341° North 371 427 22,700 720 Climbing Denver Center
12:21AM 40.9592 -104.9344 339° North 383 441 23,400 660 Climbing Denver Center
12:22AM 41.0642 -104.9839 340° North 386 444 24,100 660 Climbing Denver Center
12:23AM 41.1653 -105.0697 327° Northwest 400 460 24,800 540 Climbing Denver Center
12:24AM 41.2381 -105.1653 315° West 387 445 25,300 480 Climbing Denver Center
12:25AM 41.3117 -105.2664 314° West 392 451 25,800 480 Climbing Denver Center
12:26AM 41.3986 -105.3831 315° West 396 456 26,300 480 Climbing Denver Center
12:27AM 41.4742 -105.4858 314° West 401 461 26,800 480 Climbing Denver Center
12:28AM 41.5494 -105.5886 314° West 405 466 27,300 540 Climbing Denver Center
12:29AM 41.6375 -105.7100 314° West 406 467 28,000 660 Climbing Denver Center
12:30AM 41.7119 -105.8119 314° West 401 461 28,700 660 Climbing Denver Center
12:31AM 41.7856 -105.9142 314° West 399 459 29,400 720 Climbing Denver Center
12:32AM 41.8700 -106.0314 314° West 394 453 30,200 660 Climbing Denver Center
12:33AM 41.9425 -106.1317 314° West 390 449 30,800 540 Climbing Denver Center
12:34AM 42.0128 -106.2306 314° West 384 442 31,300 540 Climbing Denver Center
12:35AM 42.0947 -106.3467 314° West 384 442 31,900 300 Climbing Denver Center
12:36AM 42.1647 -106.4483 313° West 384 442 32,000  Climbing Denver Center
12:37AM 42.2386 -106.5494 315° West 390 449 32,000  Level Denver Center
12:38AM 42.3256 -106.6717 314° West 400 460 32,000  Level Denver Center
12:39AM 42.3992 -106.7800 313° West 405 466 32,000  Level Denver Center
12:40AM 42.4731 -106.8839 314° West 405 466 32,000  Level Denver Center
12:41AM 42.5583 -107.0053 314° West 401 461 32,000  Level Denver Center
12:42AM 42.6325 -107.1139 313° West 403 464 32,000  Level Denver Center
12:43AM 42.7169 -107.2356 313° West 402 463 32,000  Level Denver Center
12:44AM 42.7894 -107.3411 313° West 401 461 32,000  Level Denver Center
12:45AM 42.8631 -107.4469 314° West 403 464 32,000  Level Denver Center
12:46AM 42.9464 -107.5711 313° West 398 458 32,000  Level Denver Center
12:47AM 43.0208 -107.6789 313° West 405 466 32,000  Level Denver Center
12:48AM 43.0922 -107.7844 313° West 400 460 32,000  Level Denver Center
12:49AM 43.1728 -107.9083 312° West 399 459 32,000  Level Salt Lake Center
12:50AM 43.2483 -108.0192 313° West 398 458 32,000  Level Salt Lake Center
12:51AM 43.3372 -108.1533 312° West 396 456 32,000  Level Salt Lake Center
12:52AM 43.4114 -108.2644 313° West 395 455 32,000  Level Salt Lake Center
12:53AM 43.4856 -108.3739 313° West 391 450 32,000  Level Salt Lake Center
12:54AM 43.5586 -108.4867 312° West 393 452 32,000  Level Salt Lake Center
12:55AM 43.6311 -108.5978 312° West 391 450 32,000  Level Salt Lake Center
12:56AM 43.7039 -108.7075 313° West 387 445 32,000  Level Salt Lake Center
12:57AM 43.7769 -108.8178 313° West 389 448 32,000  Level Salt Lake Center
12:59AM 43.8489 -108.9278 312° West 386 444 32,000  Level Salt Lake Center
01:00AM 43.9211 -109.0400 312° West 389 448 32,000  Level Salt Lake Center
01:01AM 43.9939 -109.1528 312° West 392 451 32,000  Level Salt Lake Center
01:02AM 44.0672 -109.2658 312° West 393 452 32,000  Level Salt Lake Center
01:03AM 44.1408 -109.3811 312° West 397 457 32,000  Level Salt Lake Center
01:04AM 44.2222 -109.5089 312° West 404 465 32,000  Level Salt Lake Center
01:05AM 44.3056 -109.6381 312° West 403 464 32,000  Level Salt Lake Center
01:06AM 44.3767 -109.7492 312° West 402 463 32,000  Level Salt Lake Center
01:07AM 44.4475 -109.8614 312° West 403 464 32,000  Level Salt Lake Center
01:08AM 44.5278 -109.9894 311° West 395 455 32,000  Level Salt Lake Center
01:09AM 44.5947 -110.0994 311° West 389 448 32,000  Level Salt Lake Center
01:10AM 44.6644 -110.2103 312° West 396 456 32,000  Level Salt Lake Center
01:11AM 44.7431 -110.3389 311° West 390 449 32,000  Level Salt Lake Center
01:12AM 44.8108 -110.4483 311° West 388 447 32,000  Level Salt Lake Center
01:13AM 44.8775 -110.5581 311° West 387 445 32,000  Level Salt Lake Center
01:14AM 44.9561 -110.6836 312° West 383 441 32,000  Level Salt Lake Center
01:15AM 45.0219 -110.7928 310° West 382 440 32,000  Level Salt Lake Center
01:16AM 45.0878 -110.9025 310° West 383 441 32,000  Level Salt Lake Center
01:17AM 45.1661 -111.0286 311° West 384 442 32,000  Level Salt Lake Center
01:18AM 45.2364 -111.1483 310° West 388 447 32,000  Level Salt Lake Center
01:19AM 45.3072 -111.2656 311° West 385 443 32,000  Level Salt Lake Center
01:20AM 45.3719 -111.3758 310° West 386 444 32,000  Level Salt Lake Center
01:21AM 45.4431 -111.4956 310° West 388 447 32,000  Level Salt Lake Center
01:22AM 45.5144 -111.6161 310° West 391 450 32,000  Level Salt Lake Center
01:23AM 45.5856 -111.7378 310° West 391 450 32,000  Level Salt Lake Center
01:24AM 45.6556 -111.8583 310° West 387 445 32,000  Level Salt Lake Center
01:25AM 45.7258 -111.9778 310° West 385 443 32,000  Level Salt Lake Center
01:26AM 45.7961 -112.0989 310° West 388 447 32,000  Level Salt Lake Center
01:27AM 45.8606 -112.2108 310° West 388 447 32,000  Level Salt Lake Center
01:28AM 45.9269 -112.3286 309° West 375 432 32,000 -240 Level Salt Lake Center
01:29AM 45.9869 -112.4353 309° West 336 387 31,600 -1,080 Descending Salt Lake Center
01:30AM 46.0436 -112.5386 308° West 323 372 29,900 -1,740 Descending Salt Lake Center
01:31AM 46.0975 -112.6389 308° West 311 358 28,200 -1,800 Descending Salt Lake Center
01:32AM 46.1525 -112.7339 310° West 303 349 26,300 -1,800 Descending Salt Lake Center
01:33AM 46.2422 -112.7297 North 334 384 24,600 -1,440 Descending Salt Lake Center
01:34AM 46.3333 -112.6972 14° North 332 382 23,400 -1,200 Descending Salt Lake Center
01:35AM 46.4144 -112.6664 15° North 324 373 22,200 -1,200 Descending Salt Lake Center
01:36AM 46.4883 -112.6811 352° North 285 328 21,100 -1,200 Descending Salt Lake Center
01:37AM 46.5628 -112.7100 345° North 276 318 19,800 -1,200 Descending Salt Lake Center
01:38AM 46.6342 -112.7364 346° North 266 306 18,800 -1,020 Descending Salt Lake Center
01:39AM 46.7031 -112.7628 345° North 257 296 17,800 -900 Descending Salt Lake Center
01:40AM 46.7728 -112.8000 340° North 267 307 17,100 -900 Descending Salt Lake Center
01:41AM 46.8253 -112.8667 319° Northwest 250 288 16,000 -1,080 Descending Salt Lake Center
01:42AM 46.8800 -112.9269 323° Northwest 254 292 15,000 -1,140 Descending Salt Lake Center
01:43AM 46.9453 -113.0003 323° Northwest 250 288 13,800 -1,080 Descending Salt Lake Center
01:44AM 46.9947 -113.0583 321° Northwest 236 272 12,900 -480 Descending Salt Lake Center
01:45AM 47.0131 -113.1386 289° West 225 259 12,900  Level Salt Lake Center
01:46AM 47.0197 -113.2197 277° West 209 241 12,900 -300 Level Salt Lake Center
01:47AM 46.9911 -113.2969 242° Southwest 222 255 12,300 -540 Descending Salt Lake Center
01:48AM 46.9553 -113.3633 232° Southwest 214 246 11,900 -180 Descending Salt Lake Center
01:49AM 46.9161 -113.4394 233° Southwest 220 253 12,000 -300 Climbing Salt Lake Center
01:50AM 46.8794 -113.5100 233° Southwest 219 252 11,400 -600 Descending Salt Lake Center
01:51AM 46.8447 -113.5767 233° Southwest 211 243 10,900 -540 Descending Salt Lake Center
01:52AM 46.8097 -113.6433 233° Southwest 207 238 10,400 -480 Descending Salt Lake Center
01:53AM 46.7747 -113.7111 233° Southwest 209 241 10,000 -240 Descending Salt Lake Center
01:54AM 46.7400 -113.7764 232° Southwest 205 236 10,000 -300 Level Salt Lake Center
01:55AM 46.7033 -113.8386 229° Southwest 203 234 9,400 -660 Descending Salt Lake Center
01:56AM 46.6719 -113.9039 235° Southwest 198 228 8,700 -360 Descending Salt Lake Center
01:57AM 46.6531 -113.9758 249° West 191 220 8,700  Level Salt Lake Center
01:58AM 46.6647 -114.0328 287° West 175 201 8,700 -300 Level Salt Lake Center
01:59AM 46.7231 -114.0408 355° North 196 226 8,100 -660 Descending Salt Lake Center
02:00AM 46.7706 -114.0483 354° North 174 200 7,400 -1,140 Descending Salt Lake Center
02:01AM 46.8136 -114.0378 10° North 162 186 5,900 -1,380 Descending Salt Lake Center
02:02AM 46.8533 -114.0197 17° North 154 177 4,700 -1,080 Descending Salt Lake Center
02:03AM 46.8889 -114.0450 334° Northwest 147 169 3,800 -720 Descending Salt Lake Center
02:04AM 46.9167 -114.0931 310° West 149 171 3,300 -540 Descending Salt Lake Center